sensor_id;sensor_type;location;lat;lon;timestamp;temperature;humidity
71237;DHT22;58984;51.960;5.582;2022-12-13T00:01:44;7.60;48.50
71237;DHT22;58984;51.960;5.582;2022-12-13T00:04:10;7.60;48.50
71237;DHT22;58984;51.960;5.582;2022-12-13T00:06:36;7.60;48.50
71237;DHT22;58984;51.960;5.582;2022-12-13T00:09:03;7.60;49.20
71237;DHT22;58984;51.960;5.582;2022-12-13T00:11:29;7.60;48.60
71237;DHT22;58984;51.960;5.582;2022-12-13T00:13:55;7.60;48.60
71237;DHT22;58984;51.960;5.582;2022-12-13T00:16:22;7.60;48.60
71237;DHT22;58984;51.960;5.582;2022-12-13T00:18:51;7.60;48.50
71237;DHT22;58984;51.960;5.582;2022-12-13T00:21:20;7.50;48.50
71237;DHT22;58984;51.960;5.582;2022-12-13T00:23:46;7.60;48.50
71237;DHT22;58984;51.960;5.582;2022-12-13T00:26:14;7.50;48.40
71237;DHT22;58984;51.960;5.582;2022-12-13T00:28:40;7.50;48.40
71237;DHT22;58984;51.960;5.582;2022-12-13T00:31:07;7.50;48.40
71237;DHT22;58984;51.960;5.582;2022-12-13T00:33:33;7.50;48.40
71237;DHT22;58984;51.960;5.582;2022-12-13T00:36:02;7.50;48.30
71237;DHT22;58984;51.960;5.582;2022-12-13T00:38:28;7.50;48.40
71237;DHT22;58984;51.960;5.582;2022-12-13T00:40:54;7.50;48.30
71237;DHT22;58984;51.960;5.582;2022-12-13T00:43:19;7.50;48.40
71237;DHT22;58984;51.960;5.582;2022-12-13T00:45:45;7.40;48.30
71237;DHT22;58984;51.960;5.582;2022-12-13T00:48:11;7.50;48.40
71237;DHT22;58984;51.960;5.582;2022-12-13T00:50:37;7.40;48.20
71237;DHT22;58984;51.960;5.582;2022-12-13T00:53:03;7.40;48.20
71237;DHT22;58984;51.960;5.582;2022-12-13T00:55:28;7.50;48.30
71237;DHT22;58984;51.960;5.582;2022-12-13T00:57:54;7.40;48.30
71237;DHT22;58984;51.960;5.582;2022-12-13T01:00:20;7.40;48.30
71237;DHT22;58984;51.960;5.582;2022-12-13T01:02:46;7.40;47.90
71237;DHT22;58984;51.960;5.582;2022-12-13T01:05:11;7.40;48.40
71237;DHT22;58984;51.960;5.582;2022-12-13T01:07:38;7.40;48.40
71237;DHT22;58984;51.960;5.582;2022-12-13T01:10:07;7.40;48.40
71237;DHT22;58984;51.960;5.582;2022-12-13T01:12:33;7.40;48.40
71237;DHT22;58984;51.960;5.582;2022-12-13T01:14:59;7.40;48.40
71237;DHT22;58984;51.960;5.582;2022-12-13T01:17:25;7.30;48.40
71237;DHT22;58984;51.960;5.582;2022-12-13T01:19:50;7.30;48.40
71237;DHT22;58984;51.960;5.582;2022-12-13T01:22:16;7.30;48.40
71237;DHT22;58984;51.960;5.582;2022-12-13T01:24:42;7.30;48.40
71237;DHT22;58984;51.960;5.582;2022-12-13T01:27:08;7.30;48.60
71237;DHT22;58984;51.960;5.582;2022-12-13T01:29:33;7.30;48.60
71237;DHT22;58984;51.960;5.582;2022-12-13T01:31:59;7.30;48.50
71237;DHT22;58984;51.960;5.582;2022-12-13T01:34:25;7.30;48.50
71237;DHT22;58984;51.960;5.582;2022-12-13T01:36:52;7.30;48.60
71237;DHT22;58984;51.960;5.582;2022-12-13T01:39:19;7.30;48.50
71237;DHT22;58984;51.960;5.582;2022-12-13T01:41:47;7.30;48.60
71237;DHT22;58984;51.960;5.582;2022-12-13T01:47:19;7.20;48.50
71237;DHT22;58984;51.960;5.582;2022-12-13T01:49:47;7.20;48.50
71237;DHT22;58984;51.960;5.582;2022-12-13T01:52:14;7.20;48.50
71237;DHT22;58984;51.960;5.582;2022-12-13T01:54:44;7.20;48.50
71237;DHT22;58984;51.960;5.582;2022-12-13T01:57:11;7.20;48.60
71237;DHT22;58984;51.960;5.582;2022-12-13T01:59:40;7.20;49.10
71237;DHT22;58984;51.960;5.582;2022-12-13T02:02:08;7.20;48.60
71237;DHT22;58984;51.960;5.582;2022-12-13T02:05:15;7.20;48.60
71237;DHT22;58984;51.960;5.582;2022-12-13T02:07:34;7.20;48.50
71237;DHT22;58984;51.960;5.582;2022-12-13T02:10:04;7.20;48.60
71237;DHT22;58984;51.960;5.582;2022-12-13T02:12:32;7.20;48.60
71237;DHT22;58984;51.960;5.582;2022-12-13T02:15:01;7.10;48.40
71237;DHT22;58984;51.960;5.582;2022-12-13T02:17:59;7.20;48.50
71237;DHT22;58984;51.960;5.582;2022-12-13T02:20:47;7.10;48.50
71237;DHT22;58984;51.960;5.582;2022-12-13T02:28:30;7.10;48.50
71237;DHT22;58984;51.960;5.582;2022-12-13T02:31:08;7.10;48.40
71237;DHT22;58984;51.960;5.582;2022-12-13T02:34:21;7.10;48.50
71237;DHT22;58984;51.960;5.582;2022-12-13T02:39:27;7.10;48.50
71237;DHT22;58984;51.960;5.582;2022-12-13T02:42:05;7.10;48.40
71237;DHT22;58984;51.960;5.582;2022-12-13T02:44:40;7.00;48.40
71237;DHT22;58984;51.960;5.582;2022-12-13T02:47:24;7.00;48.40
71237;DHT22;58984;51.960;5.582;2022-12-13T02:49:55;7.10;48.50
71237;DHT22;58984;51.960;5.582;2022-12-13T02:52:24;7.00;48.40
71237;DHT22;58984;51.960;5.582;2022-12-13T02:54:53;7.00;48.40
71237;DHT22;58984;51.960;5.582;2022-12-13T02:57:32;7.00;48.50
71237;DHT22;58984;51.960;5.582;2022-12-13T03:00:06;7.00;48.40
71237;DHT22;58984;51.960;5.582;2022-12-13T03:03:02;7.00;48.40
71237;DHT22;58984;51.960;5.582;2022-12-13T03:11:18;6.90;48.80
71237;DHT22;58984;51.960;5.582;2022-12-13T03:13:56;6.90;48.30
71237;DHT22;58984;51.960;5.582;2022-12-13T03:16:33;6.90;48.30
71237;DHT22;58984;51.960;5.582;2022-12-13T03:19:03;6.90;48.30
71237;DHT22;58984;51.960;5.582;2022-12-13T03:21:35;6.90;48.30
71237;DHT22;58984;51.960;5.582;2022-12-13T03:24:01;7.00;48.40
71237;DHT22;58984;51.960;5.582;2022-12-13T03:26:27;6.90;48.30
71237;DHT22;58984;51.960;5.582;2022-12-13T03:28:53;6.90;48.30
71237;DHT22;58984;51.960;5.582;2022-12-13T03:31:19;6.90;48.30
71237;DHT22;58984;51.960;5.582;2022-12-13T03:33:45;6.90;48.30
71237;DHT22;58984;51.960;5.582;2022-12-13T03:36:11;6.90;48.30
71237;DHT22;58984;51.960;5.582;2022-12-13T03:38:38;6.90;48.30
71237;DHT22;58984;51.960;5.582;2022-12-13T03:41:09;6.90;48.30
71237;DHT22;58984;51.960;5.582;2022-12-13T03:43:36;6.90;48.30
71237;DHT22;58984;51.960;5.582;2022-12-13T03:46:03;6.80;48.20
71237;DHT22;58984;51.960;5.582;2022-12-13T03:48:28;6.80;48.20
71237;DHT22;58984;51.960;5.582;2022-12-13T03:50:54;6.80;48.20
71237;DHT22;58984;51.960;5.582;2022-12-13T03:53:21;6.80;48.20
71237;DHT22;58984;51.960;5.582;2022-12-13T03:55:47;6.80;48.20
71237;DHT22;58984;51.960;5.582;2022-12-13T03:58:12;6.80;48.20
71237;DHT22;58984;51.960;5.582;2022-12-13T04:00:38;6.80;48.20
71237;DHT22;58984;51.960;5.582;2022-12-13T04:03:03;6.80;48.20
71237;DHT22;58984;51.960;5.582;2022-12-13T04:05:29;6.80;48.20
71237;DHT22;58984;51.960;5.582;2022-12-13T04:07:55;6.80;48.20
71237;DHT22;58984;51.960;5.582;2022-12-13T04:10:22;6.80;48.20
71237;DHT22;58984;51.960;5.582;2022-12-13T04:12:47;6.80;48.20
71237;DHT22;58984;51.960;5.582;2022-12-13T04:15:32;6.80;48.30
71237;DHT22;58984;51.960;5.582;2022-12-13T04:17:57;6.80;48.20
71237;DHT22;58984;51.960;5.582;2022-12-13T04:20:23;6.70;48.10
71237;DHT22;58984;51.960;5.582;2022-12-13T04:22:48;6.70;48.20
71237;DHT22;58984;51.960;5.582;2022-12-13T04:25:14;6.70;48.20
71237;DHT22;58984;51.960;5.582;2022-12-13T04:27:39;6.70;48.20
71237;DHT22;58984;51.960;5.582;2022-12-13T04:30:06;6.80;48.20
71237;DHT22;58984;51.960;5.582;2022-12-13T04:32:31;6.70;48.20
71237;DHT22;58984;51.960;5.582;2022-12-13T04:34:57;6.70;48.20
71237;DHT22;58984;51.960;5.582;2022-12-13T04:37:23;6.70;48.20
71237;DHT22;58984;51.960;5.582;2022-12-13T04:39:48;6.70;48.10
71237;DHT22;58984;51.960;5.582;2022-12-13T04:42:14;6.70;48.20
71237;DHT22;58984;51.960;5.582;2022-12-13T04:44:40;6.70;48.10
71237;DHT22;58984;51.960;5.582;2022-12-13T04:47:06;6.70;48.20
71237;DHT22;58984;51.960;5.582;2022-12-13T04:49:32;6.70;48.50
71237;DHT22;58984;51.960;5.582;2022-12-13T04:51:58;6.70;48.20
71237;DHT22;58984;51.960;5.582;2022-12-13T04:54:24;6.60;48.10
71237;DHT22;58984;51.960;5.582;2022-12-13T04:56:50;6.60;48.10
71237;DHT22;58984;51.960;5.582;2022-12-13T04:59:16;6.60;48.10
71237;DHT22;58984;51.960;5.582;2022-12-13T05:01:41;6.60;48.10
71237;DHT22;58984;51.960;5.582;2022-12-13T05:04:07;6.60;48.10
71237;DHT22;58984;51.960;5.582;2022-12-13T05:06:32;6.60;48.10
71237;DHT22;58984;51.960;5.582;2022-12-13T05:08:58;6.60;48.10
71237;DHT22;58984;51.960;5.582;2022-12-13T05:11:25;6.60;48.10
71237;DHT22;58984;51.960;5.582;2022-12-13T05:13:50;6.60;48.10
71237;DHT22;58984;51.960;5.582;2022-12-13T05:16:16;6.60;48.10
71237;DHT22;58984;51.960;5.582;2022-12-13T05:18:41;6.60;48.10
71237;DHT22;58984;51.960;5.582;2022-12-13T05:21:09;6.60;48.10
71237;DHT22;58984;51.960;5.582;2022-12-13T05:23:35;6.60;48.10
71237;DHT22;58984;51.960;5.582;2022-12-13T05:26:01;6.60;48.10
71237;DHT22;58984;51.960;5.582;2022-12-13T05:28:28;6.60;48.10
71237;DHT22;58984;51.960;5.582;2022-12-13T05:30:56;6.60;48.10
71237;DHT22;58984;51.960;5.582;2022-12-13T05:33:22;6.60;48.10
71237;DHT22;58984;51.960;5.582;2022-12-13T05:35:48;6.50;48.00
71237;DHT22;58984;51.960;5.582;2022-12-13T05:38:14;6.60;48.10
71237;DHT22;58984;51.960;5.582;2022-12-13T05:40:40;6.50;48.00
71237;DHT22;58984;51.960;5.582;2022-12-13T05:43:05;6.60;48.10
71237;DHT22;58984;51.960;5.582;2022-12-13T05:45:31;6.50;48.00
71237;DHT22;58984;51.960;5.582;2022-12-13T05:47:57;6.50;48.00
71237;DHT22;58984;51.960;5.582;2022-12-13T05:50:23;6.60;48.10
71237;DHT22;58984;51.960;5.582;2022-12-13T05:52:49;6.50;48.00
71237;DHT22;58984;51.960;5.582;2022-12-13T05:55:15;6.60;48.10
71237;DHT22;58984;51.960;5.582;2022-12-13T05:57:40;6.50;48.10
71237;DHT22;58984;51.960;5.582;2022-12-13T06:00:07;6.50;48.10
71237;DHT22;58984;51.960;5.582;2022-12-13T06:02:40;6.50;48.00
71237;DHT22;58984;51.960;5.582;2022-12-13T06:05:07;6.50;48.10
71237;DHT22;58984;51.960;5.582;2022-12-13T06:07:34;6.50;48.10
71237;DHT22;58984;51.960;5.582;2022-12-13T06:10:00;6.50;48.10
71237;DHT22;58984;51.960;5.582;2022-12-13T06:12:26;6.50;48.10
71237;DHT22;58984;51.960;5.582;2022-12-13T06:14:51;6.50;48.20
71237;DHT22;58984;51.960;5.582;2022-12-13T06:17:17;6.50;48.10
71237;DHT22;58984;51.960;5.582;2022-12-13T06:19:44;6.50;48.70
71237;DHT22;58984;51.960;5.582;2022-12-13T06:22:11;6.50;48.10
71237;DHT22;58984;51.960;5.582;2022-12-13T06:24:36;6.50;48.10
71237;DHT22;58984;51.960;5.582;2022-12-13T06:27:02;6.50;48.20
71237;DHT22;58984;51.960;5.582;2022-12-13T06:29:29;6.50;48.10
71237;DHT22;58984;51.960;5.582;2022-12-13T06:31:58;6.50;48.20
71237;DHT22;58984;51.960;5.582;2022-12-13T06:34:24;6.40;48.10
71237;DHT22;58984;51.960;5.582;2022-12-13T06:36:49;6.40;48.10
71237;DHT22;58984;51.960;5.582;2022-12-13T06:39:15;6.40;48.10
71237;DHT22;58984;51.960;5.582;2022-12-13T06:41:41;6.40;48.10
71237;DHT22;58984;51.960;5.582;2022-12-13T06:44:07;6.40;48.10
71237;DHT22;58984;51.960;5.582;2022-12-13T06:46:33;6.40;48.10
71237;DHT22;58984;51.960;5.582;2022-12-13T06:48:59;6.40;48.10
71237;DHT22;58984;51.960;5.582;2022-12-13T06:51:24;6.40;48.20
71237;DHT22;58984;51.960;5.582;2022-12-13T06:53:50;6.40;48.10
71237;DHT22;58984;51.960;5.582;2022-12-13T06:56:16;6.40;48.20
71237;DHT22;58984;51.960;5.582;2022-12-13T06:58:42;6.40;48.10
71237;DHT22;58984;51.960;5.582;2022-12-13T07:01:15;6.40;48.10
71237;DHT22;58984;51.960;5.582;2022-12-13T07:03:42;6.40;48.10
71237;DHT22;58984;51.960;5.582;2022-12-13T07:06:27;6.40;48.10
71237;DHT22;58984;51.960;5.582;2022-12-13T07:08:55;6.40;48.20
71237;DHT22;58984;51.960;5.582;2022-12-13T07:11:23;6.40;48.10
71237;DHT22;58984;51.960;5.582;2022-12-13T07:13:50;6.40;48.20
71237;DHT22;58984;51.960;5.582;2022-12-13T07:16:16;6.40;48.20
71237;DHT22;58984;51.960;5.582;2022-12-13T07:18:42;6.30;48.10
71237;DHT22;58984;51.960;5.582;2022-12-13T07:21:09;6.40;48.30
71237;DHT22;58984;51.960;5.582;2022-12-13T07:23:37;6.30;48.20
71237;DHT22;58984;51.960;5.582;2022-12-13T07:26:03;6.40;48.20
71237;DHT22;58984;51.960;5.582;2022-12-13T07:28:34;6.30;48.20
71237;DHT22;58984;51.960;5.582;2022-12-13T07:31:01;6.30;48.20
71237;DHT22;58984;51.960;5.582;2022-12-13T07:33:27;6.40;48.20
71237;DHT22;58984;51.960;5.582;2022-12-13T07:38:26;6.30;48.10
71237;DHT22;58984;51.960;5.582;2022-12-13T07:40:55;6.30;48.10
71237;DHT22;58984;51.960;5.582;2022-12-13T07:43:21;6.30;48.20
71237;DHT22;58984;51.960;5.582;2022-12-13T07:45:47;6.30;48.80
71237;DHT22;58984;51.960;5.582;2022-12-13T07:48:12;6.30;48.10
71237;DHT22;58984;51.960;5.582;2022-12-13T07:50:38;6.30;48.20
71237;DHT22;58984;51.960;5.582;2022-12-13T07:53:07;6.30;48.20
71237;DHT22;58984;51.960;5.582;2022-12-13T07:55:34;6.30;48.30
71237;DHT22;58984;51.960;5.582;2022-12-13T07:58:11;6.30;48.20
71237;DHT22;58984;51.960;5.582;2022-12-13T08:00:38;6.30;49.00
71237;DHT22;58984;51.960;5.582;2022-12-13T08:03:05;6.20;48.30
71237;DHT22;58984;51.960;5.582;2022-12-13T08:05:31;6.30;48.40
71237;DHT22;58984;51.960;5.582;2022-12-13T08:07:57;6.30;48.50
71237;DHT22;58984;51.960;5.582;2022-12-13T08:10:23;6.30;48.40
71237;DHT22;58984;51.960;5.582;2022-12-13T08:12:49;6.30;48.50
71237;DHT22;58984;51.960;5.582;2022-12-13T08:15:15;6.30;48.40
71237;DHT22;58984;51.960;5.582;2022-12-13T08:17:42;6.30;48.50
71237;DHT22;58984;51.960;5.582;2022-12-13T08:20:08;6.30;48.40
71237;DHT22;58984;51.960;5.582;2022-12-13T08:22:34;6.20;48.30
71237;DHT22;58984;51.960;5.582;2022-12-13T08:24:59;6.30;48.40
71237;DHT22;58984;51.960;5.582;2022-12-13T08:27:25;6.30;48.40
71237;DHT22;58984;51.960;5.582;2022-12-13T08:29:52;6.20;48.30
71237;DHT22;58984;51.960;5.582;2022-12-13T08:32:18;6.20;48.30
71237;DHT22;58984;51.960;5.582;2022-12-13T08:34:44;6.30;48.50
71237;DHT22;58984;51.960;5.582;2022-12-13T08:37:11;6.30;48.50
71237;DHT22;58984;51.960;5.582;2022-12-13T08:39:37;6.20;48.40
71237;DHT22;58984;51.960;5.582;2022-12-13T08:42:09;6.30;48.60
71237;DHT22;58984;51.960;5.582;2022-12-13T08:44:51;6.20;48.50
71237;DHT22;58984;51.960;5.582;2022-12-13T08:47:22;6.20;48.50
71237;DHT22;58984;51.960;5.582;2022-12-13T08:49:47;6.20;49.20
71237;DHT22;58984;51.960;5.582;2022-12-13T08:52:13;6.20;48.50
71237;DHT22;58984;51.960;5.582;2022-12-13T08:54:38;6.30;49.20
71237;DHT22;58984;51.960;5.582;2022-12-13T08:57:04;6.30;48.60
71237;DHT22;58984;51.960;5.582;2022-12-13T08:59:30;6.30;48.50
71237;DHT22;58984;51.960;5.582;2022-12-13T09:01:56;6.30;48.50
71237;DHT22;58984;51.960;5.582;2022-12-13T09:04:21;6.30;48.50
71237;DHT22;58984;51.960;5.582;2022-12-13T09:06:47;6.30;48.50
71237;DHT22;58984;51.960;5.582;2022-12-13T09:09:12;6.30;48.50
71237;DHT22;58984;51.960;5.582;2022-12-13T09:11:39;6.30;48.50
71237;DHT22;58984;51.960;5.582;2022-12-13T09:14:07;6.30;48.50
71237;DHT22;58984;51.960;5.582;2022-12-13T09:16:33;6.30;48.50
71237;DHT22;58984;51.960;5.582;2022-12-13T09:19:01;6.30;48.60
71237;DHT22;58984;51.960;5.582;2022-12-13T09:21:27;6.30;48.70
71237;DHT22;58984;51.960;5.582;2022-12-13T09:23:53;6.30;48.70
71237;DHT22;58984;51.960;5.582;2022-12-13T09:26:19;6.30;48.70
71237;DHT22;58984;51.960;5.582;2022-12-13T09:28:45;6.30;48.70
71237;DHT22;58984;51.960;5.582;2022-12-13T09:31:13;6.30;48.70
71237;DHT22;58984;51.960;5.582;2022-12-13T09:33:39;6.30;48.80
71237;DHT22;58984;51.960;5.582;2022-12-13T09:36:06;6.30;48.70
71237;DHT22;58984;51.960;5.582;2022-12-13T09:38:33;6.40;48.80
71237;DHT22;58984;51.960;5.582;2022-12-13T09:41:07;6.40;48.80
71237;DHT22;58984;51.960;5.582;2022-12-13T09:43:36;6.40;48.80
71237;DHT22;58984;51.960;5.582;2022-12-13T09:46:06;6.40;48.80
71237;DHT22;58984;51.960;5.582;2022-12-13T09:48:33;6.40;48.80
71237;DHT22;58984;51.960;5.582;2022-12-13T09:51:00;6.40;48.80
71237;DHT22;58984;51.960;5.582;2022-12-13T09:53:26;6.40;48.90
71237;DHT22;58984;51.960;5.582;2022-12-13T09:55:52;6.50;48.90
71237;DHT22;58984;51.960;5.582;2022-12-13T09:58:23;6.50;48.90
71237;DHT22;58984;51.960;5.582;2022-12-13T10:00:52;6.50;48.90
71237;DHT22;58984;51.960;5.582;2022-12-13T10:03:20;6.50;48.90
71237;DHT22;58984;51.960;5.582;2022-12-13T10:06:00;6.50;48.90
71237;DHT22;58984;51.960;5.582;2022-12-13T10:08:35;6.60;49.00
71237;DHT22;58984;51.960;5.582;2022-12-13T10:11:02;6.60;49.00
71237;DHT22;58984;51.960;5.582;2022-12-13T10:13:49;6.60;49.00
71237;DHT22;58984;51.960;5.582;2022-12-13T10:18:51;6.70;48.90
71237;DHT22;58984;51.960;5.582;2022-12-13T10:21:34;6.70;48.80
71237;DHT22;58984;51.960;5.582;2022-12-13T10:24:13;6.70;48.80
71237;DHT22;58984;51.960;5.582;2022-12-13T10:26:40;6.80;48.80
71237;DHT22;58984;51.960;5.582;2022-12-13T10:29:06;6.80;48.80
71237;DHT22;58984;51.960;5.582;2022-12-13T10:31:58;6.80;48.80
71237;DHT22;58984;51.960;5.582;2022-12-13T10:34:36;6.80;48.70
71237;DHT22;58984;51.960;5.582;2022-12-13T10:37:30;6.90;48.90
71237;DHT22;58984;51.960;5.582;2022-12-13T10:39:57;6.90;48.80
71237;DHT22;58984;51.960;5.582;2022-12-13T10:42:23;6.90;48.60
71237;DHT22;58984;51.960;5.582;2022-12-13T10:45:13;7.00;48.80
71237;DHT22;58984;51.960;5.582;2022-12-13T10:47:42;7.00;48.80
71237;DHT22;58984;51.960;5.582;2022-12-13T10:50:21;7.00;48.60
71237;DHT22;58984;51.960;5.582;2022-12-13T10:52:47;7.00;48.60
71237;DHT22;58984;51.960;5.582;2022-12-13T10:55:27;7.10;48.70
71237;DHT22;58984;51.960;5.582;2022-12-13T10:57:57;7.10;48.80
71237;DHT22;58984;51.960;5.582;2022-12-13T11:00:44;7.10;48.80
71237;DHT22;58984;51.960;5.582;2022-12-13T11:03:26;7.10;48.80
71237;DHT22;58984;51.960;5.582;2022-12-13T11:06:03;7.20;48.80
71237;DHT22;58984;51.960;5.582;2022-12-13T11:08:29;7.30;49.10
71237;DHT22;58984;51.960;5.582;2022-12-13T11:11:05;7.40;49.10
71237;DHT22;58984;51.960;5.582;2022-12-13T11:13:44;7.40;49.00
71237;DHT22;58984;51.960;5.582;2022-12-13T11:16:23;7.50;49.10
71237;DHT22;58984;51.960;5.582;2022-12-13T11:19:17;7.50;49.00
71237;DHT22;58984;51.960;5.582;2022-12-13T11:21:49;7.60;49.00
71237;DHT22;58984;51.960;5.582;2022-12-13T11:24:23;7.60;48.80
71237;DHT22;58984;51.960;5.582;2022-12-13T11:27:07;7.70;48.90
71237;DHT22;58984;51.960;5.582;2022-12-13T11:29:44;7.70;48.90
71237;DHT22;58984;51.960;5.582;2022-12-13T11:32:26;7.80;49.00
71237;DHT22;58984;51.960;5.582;2022-12-13T11:39:56;7.90;49.00
71237;DHT22;58984;51.960;5.582;2022-12-13T11:42:39;7.90;49.00
71237;DHT22;58984;51.960;5.582;2022-12-13T11:48:18;7.90;49.00
71237;DHT22;58984;51.960;5.582;2022-12-13T11:50:49;7.80;48.90
71237;DHT22;58984;51.960;5.582;2022-12-13T11:56:14;7.90;49.00
71237;DHT22;58984;51.960;5.582;2022-12-13T12:01:44;7.90;48.80
71237;DHT22;58984;51.960;5.582;2022-12-13T12:06:52;7.90;48.80
71237;DHT22;58984;51.960;5.582;2022-12-13T12:09:24;7.90;48.80
71237;DHT22;58984;51.960;5.582;2022-12-13T12:11:58;8.00;48.90
71237;DHT22;58984;51.960;5.582;2022-12-13T12:14:45;7.90;48.70
71237;DHT22;58984;51.960;5.582;2022-12-13T12:17:14;7.90;48.60
71237;DHT22;58984;51.960;5.582;2022-12-13T12:19:44;8.00;48.20
71237;DHT22;58984;51.960;5.582;2022-12-13T12:25:21;8.00;48.70
71237;DHT22;58984;51.960;5.582;2022-12-13T12:42:14;8.00;48.60
71237;DHT22;58984;51.960;5.582;2022-12-13T12:50:13;8.00;48.90
71237;DHT22;58984;51.960;5.582;2022-12-13T12:58:26;8.10;49.20
71237;DHT22;58984;51.960;5.582;2022-12-13T13:01:49;8.10;49.20
71237;DHT22;58984;51.960;5.582;2022-12-13T13:03:45;8.20;49.40
71237;DHT22;58984;51.960;5.582;2022-12-13T13:06:29;8.20;49.30
71237;DHT22;58984;51.960;5.582;2022-12-13T13:09:01;8.30;49.40
71237;DHT22;58984;51.960;5.582;2022-12-13T13:11:33;8.30;49.40
71237;DHT22;58984;51.960;5.582;2022-12-13T13:14:32;8.40;49.40
71237;DHT22;58984;51.960;5.582;2022-12-13T13:19:46;8.50;49.30
71237;DHT22;58984;51.960;5.582;2022-12-13T13:22:33;8.50;49.20
71237;DHT22;58984;51.960;5.582;2022-12-13T13:25:24;8.60;49.10
71237;DHT22;58984;51.960;5.582;2022-12-13T13:28:12;8.50;49.00
71237;DHT22;58984;51.960;5.582;2022-12-13T13:31:08;8.60;48.90
71237;DHT22;58984;51.960;5.582;2022-12-13T13:33:48;8.60;48.80
71237;DHT22;58984;51.960;5.582;2022-12-13T13:58:26;8.50;48.40
71237;DHT22;58984;51.960;5.582;2022-12-13T14:10:10;8.40;48.30
71237;DHT22;58984;51.960;5.582;2022-12-13T14:21:54;8.30;48.20
71237;DHT22;58984;51.960;5.582;2022-12-13T14:29:46;8.30;48.30
71237;DHT22;58984;51.960;5.582;2022-12-13T14:32:26;8.30;48.30
71237;DHT22;58984;51.960;5.582;2022-12-13T14:34:52;8.20;48.20
71237;DHT22;58984;51.960;5.582;2022-12-13T14:39:47;8.20;48.20
71237;DHT22;58984;51.960;5.582;2022-12-13T14:42:30;8.20;48.20
71237;DHT22;58984;51.960;5.582;2022-12-13T14:47:47;8.20;48.20
71237;DHT22;58984;51.960;5.582;2022-12-13T14:50:16;8.10;48.20
71237;DHT22;58984;51.960;5.582;2022-12-13T14:52:43;8.10;48.20
71237;DHT22;58984;51.960;5.582;2022-12-13T14:55:26;8.10;48.10
71237;DHT22;58984;51.960;5.582;2022-12-13T14:57:54;8.10;48.20
71237;DHT22;58984;51.960;5.582;2022-12-13T15:00:24;8.10;48.10
71237;DHT22;58984;51.960;5.582;2022-12-13T15:02:52;8.10;48.10
71237;DHT22;58984;51.960;5.582;2022-12-13T15:08:07;8.00;48.00
71237;DHT22;58984;51.960;5.582;2022-12-13T15:10:45;8.00;48.00
71237;DHT22;58984;51.960;5.582;2022-12-13T15:15:52;8.00;48.10
71237;DHT22;58984;51.960;5.582;2022-12-13T15:18:22;8.00;48.00
71237;DHT22;58984;51.960;5.582;2022-12-13T15:20:50;7.90;47.90
71237;DHT22;58984;51.960;5.582;2022-12-13T15:26:10;7.90;48.00
71237;DHT22;58984;51.960;5.582;2022-12-13T15:28:40;7.90;47.90
71237;DHT22;58984;51.960;5.582;2022-12-13T15:31:06;7.90;47.90
71237;DHT22;58984;51.960;5.582;2022-12-13T15:33:33;7.90;47.90
71237;DHT22;58984;51.960;5.582;2022-12-13T15:41:19;7.90;47.90
71237;DHT22;58984;51.960;5.582;2022-12-13T15:43:51;7.80;47.80
71237;DHT22;58984;51.960;5.582;2022-12-13T15:46:30;7.80;47.80
71237;DHT22;58984;51.960;5.582;2022-12-13T15:48:58;7.80;47.80
71237;DHT22;58984;51.960;5.582;2022-12-13T15:51:24;7.80;47.80
71237;DHT22;58984;51.960;5.582;2022-12-13T15:56:57;7.70;47.80
71237;DHT22;58984;51.960;5.582;2022-12-13T15:59:33;7.80;47.90
71237;DHT22;58984;51.960;5.582;2022-12-13T16:02:00;7.70;47.80
71237;DHT22;58984;51.960;5.582;2022-12-13T16:04:31;7.70;48.40
71237;DHT22;58984;51.960;5.582;2022-12-13T16:06:58;7.70;47.80
71237;DHT22;58984;51.960;5.582;2022-12-13T16:09:28;7.70;47.90
71237;DHT22;58984;51.960;5.582;2022-12-13T16:11:57;7.70;47.90
71237;DHT22;58984;51.960;5.582;2022-12-13T16:17:26;7.70;47.90
71237;DHT22;58984;51.960;5.582;2022-12-13T16:19:54;7.60;47.90
71237;DHT22;58984;51.960;5.582;2022-12-13T16:22:24;7.60;47.80
71237;DHT22;58984;51.960;5.582;2022-12-13T16:24:50;7.60;47.80
71237;DHT22;58984;51.960;5.582;2022-12-13T16:27:16;7.60;47.80
71237;DHT22;58984;51.960;5.582;2022-12-13T16:29:42;7.60;47.90
71237;DHT22;58984;51.960;5.582;2022-12-13T16:32:08;7.60;47.90
71237;DHT22;58984;51.960;5.582;2022-12-13T16:34:36;7.60;47.90
71237;DHT22;58984;51.960;5.582;2022-12-13T16:37:02;7.60;47.90
71237;DHT22;58984;51.960;5.582;2022-12-13T16:39:27;7.50;47.80
71237;DHT22;58984;51.960;5.582;2022-12-13T16:41:53;7.60;47.80
71237;DHT22;58984;51.960;5.582;2022-12-13T16:44:33;7.50;47.80
71237;DHT22;58984;51.960;5.582;2022-12-13T16:46:59;7.50;47.80
71237;DHT22;58984;51.960;5.582;2022-12-13T16:49:28;7.50;47.80
71237;DHT22;58984;51.960;5.582;2022-12-13T16:51:54;7.50;47.80
71237;DHT22;58984;51.960;5.582;2022-12-13T16:54:21;7.50;47.80
71237;DHT22;58984;51.960;5.582;2022-12-13T16:56:48;7.50;47.80
71237;DHT22;58984;51.960;5.582;2022-12-13T16:59:19;7.50;47.80
71237;DHT22;58984;51.960;5.582;2022-12-13T17:01:45;7.50;47.80
71237;DHT22;58984;51.960;5.582;2022-12-13T17:04:13;7.50;47.80
71237;DHT22;58984;51.960;5.582;2022-12-13T17:06:39;7.50;47.70
71237;DHT22;58984;51.960;5.582;2022-12-13T17:09:05;7.50;47.70
71237;DHT22;58984;51.960;5.582;2022-12-13T17:11:32;7.40;47.60
71237;DHT22;58984;51.960;5.582;2022-12-13T17:13:59;7.40;47.60
71237;DHT22;58984;51.960;5.582;2022-12-13T17:16:25;7.40;47.60
71237;DHT22;58984;51.960;5.582;2022-12-13T17:18:51;7.40;47.60
71237;DHT22;58984;51.960;5.582;2022-12-13T17:21:16;7.40;47.70
71237;DHT22;58984;51.960;5.582;2022-12-13T17:23:42;7.40;47.60
71237;DHT22;58984;51.960;5.582;2022-12-13T17:26:10;7.40;47.60
71237;DHT22;58984;51.960;5.582;2022-12-13T17:28:36;7.40;47.60
71237;DHT22;58984;51.960;5.582;2022-12-13T17:31:06;7.40;47.60
71237;DHT22;58984;51.960;5.582;2022-12-13T17:33:32;7.30;47.50
71237;DHT22;58984;51.960;5.582;2022-12-13T17:36:00;7.40;47.60
71237;DHT22;58984;51.960;5.582;2022-12-13T17:38:27;7.30;47.50
71237;DHT22;58984;51.960;5.582;2022-12-13T17:40:53;7.30;47.50
71237;DHT22;58984;51.960;5.582;2022-12-13T17:43:18;7.40;47.60
71237;DHT22;58984;51.960;5.582;2022-12-13T17:45:44;7.30;47.50
71237;DHT22;58984;51.960;5.582;2022-12-13T17:48:09;7.30;47.50
71237;DHT22;58984;51.960;5.582;2022-12-13T17:50:38;7.30;47.50
71237;DHT22;58984;51.960;5.582;2022-12-13T17:53:05;7.30;47.50
71237;DHT22;58984;51.960;5.582;2022-12-13T17:55:31;7.30;47.50
71237;DHT22;58984;51.960;5.582;2022-12-13T17:57:56;7.30;47.50
71237;DHT22;58984;51.960;5.582;2022-12-13T18:00:22;7.30;47.50
71237;DHT22;58984;51.960;5.582;2022-12-13T18:02:48;7.30;47.50
71237;DHT22;58984;51.960;5.582;2022-12-13T18:05:13;7.30;47.50
71237;DHT22;58984;51.960;5.582;2022-12-13T18:07:39;7.30;47.50
71237;DHT22;58984;51.960;5.582;2022-12-13T18:10:05;7.30;47.50
71237;DHT22;58984;51.960;5.582;2022-12-13T18:12:31;7.30;47.50
71237;DHT22;58984;51.960;5.582;2022-12-13T18:14:57;7.20;47.40
71237;DHT22;58984;51.960;5.582;2022-12-13T18:17:23;7.30;47.50
71237;DHT22;58984;51.960;5.582;2022-12-13T18:19:50;7.30;47.50